createdAt,value
2022-08-24T00:04:33.800Z,1.70
2022-08-24T00:07:05.103Z,1.80
2022-08-24T00:09:43.425Z,1.98
2022-08-24T00:12:21.879Z,2.50
2022-08-24T00:15:00.557Z,1.90
2022-08-24T00:17:31.704Z,2.00
2022-08-24T00:20:02.717Z,1.92
2022-08-24T00:22:33.599Z,2.38
2022-08-24T00:30:20.816Z,2.55
2022-08-24T00:32:52.615Z,2.10
2022-08-24T00:35:27.409Z,1.92
2022-08-24T00:38:01.046Z,2.40
2022-08-24T00:40:44.224Z,2.47
2022-08-24T00:43:23.020Z,2.80
2022-08-24T00:46:05.843Z,3.08
2022-08-24T00:48:41.104Z,3.10
2022-08-24T00:51:23.206Z,3.13
2022-08-24T00:54:02.756Z,2.67
2022-08-24T00:56:41.144Z,2.65
2022-08-24T01:02:27.795Z,2.13
2022-08-24T01:05:06.963Z,2.40
2022-08-24T01:07:35.377Z,2.63
2022-08-24T01:10:07.770Z,2.63
2022-08-24T01:12:40.320Z,2.57
2022-08-24T01:15:09.661Z,2.83
2022-08-24T01:17:56.867Z,2.22
2022-08-24T01:20:26.992Z,2.50
2022-08-24T01:23:11.237Z,3.17
2022-08-24T01:25:44.829Z,3.05
2022-08-24T01:28:17.011Z,2.70
2022-08-24T01:30:50.614Z,2.65
2022-08-24T01:33:29.133Z,3.30
2022-08-24T01:36:18.910Z,2.70
2022-08-24T01:38:48.473Z,3.28
2022-08-24T01:41:15.724Z,3.63
2022-08-24T01:43:42.916Z,3.17
2022-08-24T01:46:11.045Z,3.25
2022-08-24T01:48:39.498Z,3.60
2022-08-24T01:51:06.822Z,3.05
2022-08-24T01:53:34.285Z,2.38
2022-08-24T01:56:01.602Z,2.25
2022-08-24T01:58:29.803Z,2.42
2022-08-24T02:00:57.471Z,2.60
2022-08-24T02:03:30.414Z,2.10
2022-08-24T02:05:59.857Z,2.30
2022-08-24T02:08:32.431Z,2.08
2022-08-24T02:10:59.518Z,3.42
2022-08-24T02:13:31.016Z,2.00
2022-08-24T02:16:01.129Z,2.20
2022-08-24T02:18:33.459Z,1.75
2022-08-24T02:21:01.589Z,2.65
2022-08-24T02:23:32.540Z,2.05
2022-08-24T02:26:04.601Z,1.75
2022-08-24T02:28:32.791Z,1.90
2022-08-24T02:31:02.861Z,1.95
2022-08-24T02:33:31.132Z,1.60
2022-08-24T02:35:58.835Z,1.80
2022-08-24T02:38:27.455Z,2.00
2022-08-24T02:40:57.138Z,1.85
2022-08-24T02:43:25.468Z,2.42
2022-08-24T02:45:52.654Z,1.50
2022-08-24T02:48:22.301Z,1.63
2022-08-24T02:50:51.628Z,1.70
2022-08-24T02:53:21.357Z,2.35
2022-08-24T02:55:48.841Z,2.45
2022-08-24T02:58:21.048Z,2.65
2022-08-24T03:00:49.424Z,2.80
2022-08-24T03:03:19.927Z,2.40
2022-08-24T03:05:47.358Z,1.73
2022-08-24T03:08:15.153Z,1.98
2022-08-24T03:10:47.442Z,1.55
2022-08-24T03:13:15.411Z,1.75
2022-08-24T03:15:43.287Z,1.75
2022-08-24T03:18:13.584Z,2.28
2022-08-24T03:20:42.475Z,1.67
2022-08-24T03:23:10.243Z,1.83
2022-08-24T03:25:37.940Z,2.03
2022-08-24T03:28:10.993Z,1.90
2022-08-24T03:30:42.081Z,1.60
2022-08-24T03:33:14.407Z,1.92
2022-08-24T03:35:41.862Z,1.70
2022-08-24T03:38:11.267Z,1.92
2022-08-24T03:40:38.765Z,1.80
2022-08-24T03:43:09.838Z,2.10
2022-08-24T03:45:40.596Z,1.90
2022-08-24T03:48:09.397Z,1.80
2022-08-24T03:50:39.496Z,1.70
2022-08-24T03:53:07.989Z,2.03
2022-08-24T03:55:35.686Z,2.70
2022-08-24T03:58:03.400Z,2.90
2022-08-24T04:00:30.883Z,1.63
2022-08-24T04:02:59.969Z,1.85
2022-08-24T04:05:28.230Z,2.08
2022-08-24T04:08:02.310Z,2.10
2022-08-24T04:10:29.586Z,1.98
2022-08-24T04:12:57.047Z,1.85
2022-08-24T04:15:25.541Z,1.83
2022-08-24T04:17:53.019Z,2.08
2022-08-24T04:20:20.404Z,2.03
2022-08-24T04:22:51.715Z,1.95
2022-08-24T04:25:25.008Z,1.95
2022-08-24T04:27:52.830Z,2.10
2022-08-24T04:30:23.131Z,2.20
2022-08-24T04:33:08.757Z,2.30
2022-08-24T04:35:44.102Z,2.55
2022-08-24T04:38:15.305Z,1.75
2022-08-24T04:40:51.382Z,2.35
2022-08-24T04:43:19.676Z,2.25
2022-08-24T04:45:54.424Z,2.15
2022-08-24T04:48:25.313Z,2.22
2022-08-24T04:50:53.982Z,2.47
2022-08-24T04:53:25.800Z,2.75
2022-08-24T04:55:53.156Z,2.50
2022-08-24T04:58:23.321Z,2.75
2022-08-24T05:00:51.154Z,2.55
2022-08-24T05:03:19.821Z,2.45
2022-08-24T05:05:56.269Z,2.58
2022-08-24T05:08:26.339Z,2.17
2022-08-24T05:10:56.585Z,2.85
2022-08-24T05:13:27.904Z,2.50
2022-08-24T05:15:57.935Z,2.60
2022-08-24T05:18:25.847Z,2.45
2022-08-24T05:20:56.678Z,2.28
2022-08-24T05:23:24.648Z,2.65
2022-08-24T05:25:52.685Z,2.30
2022-08-24T05:28:20.883Z,3.08
2022-08-24T05:30:54.281Z,2.83
2022-08-24T05:33:21.975Z,3.08
2022-08-24T05:35:52.129Z,3.05
2022-08-24T05:38:21.767Z,2.50
2022-08-24T05:40:51.736Z,2.90
2022-08-24T05:43:23.045Z,2.92
2022-08-24T05:45:53.327Z,3.25
2022-08-24T05:48:24.610Z,2.55
2022-08-24T05:51:14.840Z,3.90
2022-08-24T05:53:54.740Z,3.00
2022-08-24T05:56:25.185Z,2.75
2022-08-24T05:58:54.311Z,3.05
2022-08-24T06:01:26.022Z,4.20
2022-08-24T06:03:55.661Z,3.15
2022-08-24T06:06:31.495Z,2.80
2022-08-24T06:09:01.002Z,3.83
2022-08-24T06:11:37.713Z,3.58
2022-08-24T06:14:15.579Z,3.47
2022-08-24T06:16:58.226Z,4.00
2022-08-24T06:19:27.249Z,3.28
2022-08-24T06:21:56.112Z,3.30
2022-08-24T06:24:45.198Z,2.97
2022-08-24T06:27:25.920Z,2.92
2022-08-24T06:30:03.976Z,2.42
2022-08-24T06:32:49.596Z,3.00
2022-08-24T06:35:32.519Z,3.53
2022-08-24T06:38:00.187Z,2.80
2022-08-24T06:40:30.593Z,3.30
2022-08-24T06:43:03.397Z,4.05
2022-08-24T06:46:00.148Z,6.45
2022-08-24T06:48:31.380Z,9.25
2022-08-24T06:50:59.654Z,13.90
2022-08-24T06:53:30.328Z,13.60
2022-08-24T06:56:00.143Z,12.88
2022-08-24T06:58:31.660Z,11.95
2022-08-24T07:01:21.189Z,12.90
2022-08-24T07:03:52.722Z,13.27
2022-08-24T07:06:42.113Z,10.80
2022-08-24T07:09:10.584Z,7.45
2022-08-24T07:11:41.155Z,7.03
2022-08-24T07:14:10.835Z,5.72
2022-08-24T07:16:38.392Z,5.60
2022-08-24T07:19:08.269Z,5.22
2022-08-24T07:21:36.177Z,4.60
2022-08-24T07:24:15.673Z,4.20
2022-08-24T07:26:48.598Z,4.28
2022-08-24T07:29:46.372Z,4.00
2022-08-24T07:32:12.782Z,3.90
2022-08-24T07:34:45.408Z,3.28
2022-08-24T07:37:17.028Z,4.03
2022-08-24T07:39:49.391Z,3.20
2022-08-24T07:42:29.499Z,3.55
2022-08-24T07:45:05.150Z,3.70
2022-08-24T07:47:47.032Z,3.20
2022-08-24T07:50:37.533Z,2.95
2022-08-24T07:53:09.759Z,3.42
2022-08-24T07:55:45.957Z,3.53
2022-08-24T07:58:13.983Z,3.67
2022-08-24T08:00:41.522Z,4.38
2022-08-24T08:03:08.904Z,4.88
2022-08-24T08:05:43.539Z,6.55
2022-08-24T08:08:12.356Z,4.28
2022-08-24T08:10:41.209Z,5.47
2022-08-24T08:13:08.597Z,4.20
2022-08-24T08:15:37.440Z,3.40
2022-08-24T08:18:13.300Z,3.60
2022-08-24T08:20:49.038Z,2.90
2022-08-24T08:23:38.354Z,3.42
2022-08-24T08:26:28.353Z,3.35
2022-08-24T08:29:08.512Z,3.58
2022-08-24T08:31:38.847Z,3.10
2022-08-24T08:34:17.462Z,3.00
2022-08-24T08:36:50.948Z,2.65
2022-08-24T08:39:22.567Z,3.30
2022-08-24T08:42:27.836Z,3.78
2022-08-24T08:45:20.426Z,2.67
2022-08-24T08:47:59.532Z,3.00
2022-08-24T08:50:54.109Z,2.70
2022-08-24T08:53:36.596Z,2.13
2022-08-24T08:56:21.115Z,2.93
2022-08-24T08:59:16.080Z,2.67
2022-08-24T09:02:14.658Z,3.10
2022-08-24T09:04:55.989Z,2.95
2022-08-24T09:08:07.581Z,2.47
2022-08-24T09:11:13.384Z,2.63
2022-08-24T09:13:59.581Z,5.38
2022-08-24T09:16:59.395Z,4.63
2022-08-24T09:20:13.330Z,5.72
2022-08-24T09:22:48.551Z,3.22
2022-08-24T09:25:24.727Z,3.80
2022-08-24T09:28:48.818Z,3.20
2022-08-24T09:31:36.410Z,2.35
2022-08-24T09:34:14.824Z,4.63
2022-08-24T09:37:25.135Z,3.22
2022-08-24T09:40:31.914Z,3.85
2022-08-24T09:43:38.808Z,3.35
2022-08-24T09:46:34.965Z,2.97
2022-08-24T09:49:23.149Z,2.58
2022-08-24T09:52:18.961Z,2.45
2022-08-24T09:55:05.811Z,2.50
2022-08-24T09:58:00.440Z,3.95
2022-08-24T10:00:38.147Z,2.60
2022-08-24T10:03:37.790Z,2.28
2022-08-24T10:06:42.911Z,2.92
2022-08-24T10:09:56.468Z,2.25
2022-08-24T10:13:01.674Z,1.90
2022-08-24T10:16:07.612Z,2.20
2022-08-24T10:19:08.235Z,3.85
2022-08-24T10:22:17.866Z,2.00
2022-08-24T10:25:02.793Z,2.30
2022-08-24T10:28:07.947Z,2.47
2022-08-24T10:30:55.988Z,3.38
2022-08-24T10:33:29.389Z,2.95
2022-08-24T10:36:40.676Z,2.33
2022-08-24T10:39:48.014Z,3.08
2022-08-24T10:43:02.714Z,2.60
2022-08-24T10:46:06.074Z,2.00
2022-08-24T10:48:39.141Z,2.42
2022-08-24T10:51:28.038Z,2.20
2022-08-24T10:53:59.503Z,2.22
2022-08-24T10:57:12.426Z,3.40
2022-08-24T11:00:01.804Z,2.58
2022-08-24T11:02:39.811Z,3.67
2022-08-24T11:05:41.035Z,5.72
2022-08-24T11:08:08.614Z,3.20
2022-08-24T11:10:40.714Z,2.70
2022-08-24T11:13:27.520Z,2.28
2022-08-24T11:16:01.753Z,2.58
2022-08-24T11:18:58.521Z,3.00
2022-08-24T11:21:38.199Z,2.47
2022-08-24T11:24:12.618Z,3.60
2022-08-24T11:26:53.649Z,2.28
2022-08-24T11:29:56.937Z,2.53
2022-08-24T11:33:02.694Z,3.33
2022-08-24T11:35:35.708Z,3.50
2022-08-24T11:38:17.139Z,2.72
2022-08-24T11:40:53.696Z,3.20
2022-08-24T11:43:51.148Z,2.70
2022-08-24T11:46:43.445Z,2.88
2022-08-24T11:49:46.743Z,2.90
2022-08-24T11:52:38.763Z,2.05
2022-08-24T11:55:19.830Z,1.60
2022-08-24T11:58:17.819Z,2.28
2022-08-24T12:01:05.671Z,2.35
2022-08-24T12:04:10.139Z,1.40
2022-08-24T12:06:45.271Z,1.67
2022-08-24T12:11:50.773Z,1.83
2022-08-24T12:14:33.851Z,1.60
2022-08-24T12:17:33.829Z,1.50
2022-08-24T12:20:17.820Z,1.58
2022-08-24T12:22:48.662Z,1.38
2022-08-24T12:25:37.711Z,1.40
2022-08-24T12:28:06.844Z,1.70
2022-08-24T12:30:34.641Z,1.92
2022-08-24T12:33:12.928Z,1.35
2022-08-24T12:35:48.596Z,1.35
2022-08-24T12:38:48.108Z,2.17
2022-08-24T12:41:34.265Z,1.98
2022-08-24T12:44:13.124Z,1.60
2022-08-24T12:46:43.534Z,1.70
2022-08-24T12:49:28.688Z,1.48
2022-08-24T12:52:26.614Z,1.58
2022-08-24T12:55:12.364Z,1.95
2022-08-24T12:57:54.929Z,2.05
2022-08-24T13:00:35.440Z,1.38
2022-08-24T13:03:08.460Z,1.45
2022-08-24T13:05:54.733Z,1.33
2022-08-24T13:08:53.020Z,1.20
2022-08-24T13:11:40.803Z,1.77
2022-08-24T13:14:26.712Z,2.03
2022-08-24T13:16:59.952Z,1.20
2022-08-24T13:19:29.593Z,1.67
2022-08-24T13:22:41.676Z,1.27
2022-08-24T13:25:54.431Z,1.40
2022-08-24T13:28:21.933Z,1.65
2022-08-24T13:31:06.789Z,1.98
2022-08-24T13:33:46.359Z,1.20
2022-08-24T13:36:34.918Z,1.77
2022-08-24T13:39:38.427Z,1.63
2022-08-24T13:42:36.843Z,1.60
2022-08-24T13:45:23.830Z,1.33
2022-08-24T13:48:07.581Z,2.40
2022-08-24T13:50:54.096Z,2.13
2022-08-24T13:53:48.826Z,1.70
2022-08-24T13:56:36.354Z,1.50
2022-08-24T13:59:37.464Z,1.70
2022-08-24T14:02:27.958Z,1.60
2022-08-24T14:05:22.732Z,1.60
2022-08-24T14:08:30.368Z,1.63
2022-08-24T14:11:43.749Z,1.38
2022-08-24T14:15:04.304Z,1.75
2022-08-24T14:18:27.650Z,1.85
2022-08-24T14:21:01.234Z,1.42
2022-08-24T14:23:55.819Z,1.60
2022-08-24T14:26:54.026Z,1.90
2022-08-24T14:29:28.709Z,1.60
2022-08-24T14:32:12.285Z,1.40
2022-08-24T14:35:23.449Z,1.65
2022-08-24T14:38:17.650Z,1.27
2022-08-24T14:41:28.094Z,1.70
2022-08-24T14:44:22.171Z,1.30
2022-08-24T14:47:32.741Z,1.30
2022-08-24T14:50:25.372Z,1.40
2022-08-24T14:53:06.707Z,1.30
2022-08-24T14:56:01.056Z,1.23
2022-08-24T14:58:45.285Z,1.65
2022-08-24T15:01:24.527Z,1.42
2022-08-24T15:04:30.770Z,1.27
2022-08-24T15:07:29.564Z,1.20
2022-08-24T15:10:04.480Z,2.25
2022-08-24T15:13:03.530Z,1.23
2022-08-24T15:15:58.644Z,1.52
2022-08-24T15:18:41.569Z,1.50
2022-08-24T15:21:31.411Z,1.58
2022-08-24T15:24:18.462Z,1.55
2022-08-24T15:27:12.982Z,1.92
2022-08-24T15:30:04.510Z,1.80
2022-08-24T15:32:53.684Z,1.42
2022-08-24T15:35:41.880Z,1.40
2022-08-24T15:38:39.068Z,1.33
2022-08-24T15:41:16.831Z,1.92
2022-08-24T15:43:51.915Z,1.65
2022-08-24T15:46:33.691Z,1.63
2022-08-24T15:49:24.608Z,0.95
2022-08-24T15:52:05.256Z,1.42
2022-08-24T15:54:38.275Z,1.65
2022-08-24T15:57:31.834Z,1.70
2022-08-24T16:00:14.632Z,1.85
2022-08-24T16:02:42.597Z,1.77
2022-08-24T16:05:35.317Z,1.98
2022-08-24T16:08:09.768Z,2.43
2022-08-24T16:11:27.100Z,2.28
2022-08-24T16:13:57.738Z,1.90
2022-08-24T16:16:47.738Z,1.73
2022-08-24T16:19:25.639Z,1.88
2022-08-24T16:22:03.432Z,1.75
2022-08-24T16:24:34.668Z,1.60
2022-08-24T16:27:19.450Z,2.30
2022-08-24T16:29:54.765Z,1.75
2022-08-24T16:32:49.964Z,1.50
2022-08-24T16:35:25.223Z,1.85
2022-08-24T16:38:00.012Z,1.70
2022-08-24T16:40:36.530Z,2.00
2022-08-24T16:43:07.072Z,1.95
2022-08-24T16:45:39.491Z,1.65
2022-08-24T16:48:09.140Z,2.00
2022-08-24T16:50:39.028Z,1.77
2022-08-24T16:55:38.351Z,1.52
2022-08-24T16:58:11.506Z,2.15
2022-08-24T17:00:39.044Z,1.90
2022-08-24T17:03:14.289Z,2.30
2022-08-24T17:05:48.251Z,1.60
2022-08-24T17:08:15.635Z,1.70
2022-08-24T17:10:48.417Z,2.15
2022-08-24T17:13:33.342Z,1.73
2022-08-24T17:16:10.859Z,1.60
2022-08-24T17:18:42.201Z,1.77
2022-08-24T17:21:10.405Z,1.50
2022-08-24T17:23:48.944Z,1.27
2022-08-24T17:26:22.907Z,1.55
2022-08-24T17:28:59.918Z,2.03
2022-08-24T17:31:29.339Z,1.73
2022-08-24T17:33:56.504Z,1.83
2022-08-24T17:36:24.709Z,1.48
2022-08-24T17:38:57.713Z,1.60
2022-08-24T17:41:28.258Z,1.90
2022-08-24T17:44:01.456Z,1.30
2022-08-24T17:46:31.551Z,1.50
2022-08-24T17:49:06.074Z,1.67
2022-08-24T17:51:53.544Z,1.60
2022-08-24T17:54:22.315Z,1.52
2022-08-24T17:56:52.815Z,1.95
2022-08-24T17:59:28.559Z,1.60
2022-08-24T18:02:02.993Z,1.85
2022-08-24T18:04:36.738Z,1.42
2022-08-24T18:07:35.841Z,1.25
2022-08-24T18:10:09.106Z,1.50
2022-08-24T18:12:39.787Z,1.60
2022-08-24T18:15:10.589Z,1.85
2022-08-24T18:17:41.185Z,2.00
2022-08-24T18:20:18.129Z,1.80
2022-08-24T18:22:47.424Z,1.60
2022-08-24T18:25:23.508Z,1.85
2022-08-24T18:27:54.019Z,1.50
2022-08-24T18:30:29.078Z,1.52
2022-08-24T18:33:02.568Z,1.70
2022-08-24T18:35:36.756Z,1.65
2022-08-24T18:38:06.830Z,1.70
2022-08-24T18:40:46.831Z,1.58
2022-08-24T18:43:28.431Z,1.50
2022-08-24T18:45:58.368Z,1.70
2022-08-24T18:48:28.539Z,1.60
2022-08-24T18:51:01.396Z,2.03
2022-08-24T18:53:31.475Z,1.55
2022-08-24T18:56:09.273Z,1.40
2022-08-24T18:58:45.284Z,1.70
2022-08-24T19:01:16.811Z,1.67
2022-08-24T19:03:48.698Z,1.70
2022-08-24T19:06:27.662Z,1.40
2022-08-24T19:08:57.438Z,1.20
2022-08-24T19:11:28.095Z,1.20
2022-08-24T19:16:33.263Z,1.25
2022-08-24T19:19:05.713Z,1.40
2022-08-24T19:21:39.824Z,1.37
2022-08-24T19:24:10.849Z,1.58
2022-08-24T19:26:43.333Z,1.25
2022-08-24T19:29:28.497Z,1.75
2022-08-24T19:32:16.362Z,1.90
2022-08-24T19:34:53.817Z,1.50
2022-08-24T19:37:22.304Z,1.58
2022-08-24T19:39:50.920Z,1.90
2022-08-24T19:42:21.121Z,1.80
2022-08-24T19:45:10.396Z,1.60
2022-08-24T19:47:38.241Z,1.77
2022-08-24T19:50:11.680Z,2.25
2022-08-24T19:52:42.510Z,1.77
2022-08-24T19:57:50.939Z,2.78
2022-08-24T20:00:24.298Z,2.00
2022-08-24T20:02:56.919Z,2.00
2022-08-24T20:05:31.384Z,1.60
2022-08-24T20:08:04.852Z,1.48
2022-08-24T20:10:38.525Z,1.92
2022-08-24T20:13:09.337Z,1.73
2022-08-24T20:15:36.767Z,1.45
2022-08-24T20:18:04.577Z,1.83
2022-08-24T20:20:32.995Z,1.80
2022-08-24T20:23:06.479Z,1.50
2022-08-24T20:25:41.303Z,2.03
2022-08-24T20:28:29.139Z,1.95
2022-08-24T20:31:02.328Z,1.67
2022-08-24T20:33:35.242Z,1.40
2022-08-24T20:36:02.893Z,1.65
2022-08-24T20:38:35.364Z,1.83
2022-08-24T20:41:04.910Z,2.10
2022-08-24T20:43:39.705Z,2.00
2022-08-24T20:46:12.844Z,2.22
2022-08-24T20:48:42.935Z,1.98
2022-08-24T20:51:11.277Z,1.83
2022-08-24T20:53:39.046Z,1.92
2022-08-24T20:56:12.073Z,1.90
2022-08-24T20:58:44.029Z,1.60
2022-08-24T21:01:17.108Z,1.73
2022-08-24T21:03:46.165Z,1.52
2022-08-24T21:06:19.554Z,1.65
2022-08-24T21:08:52.560Z,1.95
2022-08-24T21:11:22.804Z,1.70
2022-08-24T21:13:50.248Z,1.67
2022-08-24T21:16:19.071Z,1.58
2022-08-24T21:18:48.214Z,1.58
2022-08-24T21:21:16.533Z,1.48
2022-08-24T21:23:47.153Z,1.70
2022-08-24T21:26:17.555Z,1.45
2022-08-24T21:28:45.068Z,2.00
2022-08-24T21:31:18.535Z,1.75
2022-08-24T21:34:04.122Z,1.85
2022-08-24T21:36:32.601Z,1.40
2022-08-24T21:39:01.407Z,1.85
2022-08-24T21:41:31.429Z,1.52
2022-08-24T21:44:01.617Z,1.70
2022-08-24T21:46:34.110Z,1.55
2022-08-24T21:49:04.842Z,1.67
2022-08-24T21:51:38.453Z,1.45
2022-08-24T21:54:09.961Z,1.95
2022-08-24T21:56:42.965Z,1.52
2022-08-24T21:59:13.223Z,1.60
2022-08-24T22:01:41.249Z,2.83
2022-08-24T22:04:09.048Z,2.65
2022-08-24T22:06:36.959Z,2.70
2022-08-24T22:09:10.617Z,1.73
2022-08-24T22:14:11.752Z,2.70
2022-08-24T22:16:39.032Z,1.55
2022-08-24T22:19:06.455Z,1.80
2022-08-24T22:21:36.650Z,1.52
2022-08-24T22:24:07.319Z,1.40
2022-08-24T22:26:37.712Z,1.77
2022-08-24T22:29:13.803Z,1.30
2022-08-24T22:31:48.528Z,1.80
2022-08-24T22:34:20.663Z,2.13
2022-08-24T22:36:55.345Z,2.25
2022-08-24T22:39:27.410Z,2.10
2022-08-24T22:41:56.403Z,2.17
2022-08-24T22:44:25.368Z,2.47
2022-08-24T22:46:54.469Z,2.90
2022-08-24T22:49:24.122Z,2.88
2022-08-24T22:51:51.641Z,2.97
2022-08-24T22:54:22.896Z,3.30
2022-08-24T22:56:53.177Z,3.58
2022-08-24T22:59:29.616Z,3.20
2022-08-24T23:01:59.189Z,2.75
2022-08-24T23:04:36.176Z,3.22
2022-08-24T23:07:11.023Z,3.50
2022-08-24T23:09:44.563Z,2.55
2022-08-24T23:12:21.305Z,3.13
2022-08-24T23:14:50.620Z,3.17
2022-08-24T23:17:22.230Z,2.53
2022-08-24T23:20:04.937Z,2.50
2022-08-24T23:22:41.095Z,2.13
2022-08-24T23:25:13.140Z,2.47
2022-08-24T23:27:46.535Z,2.38
2022-08-24T23:30:22.446Z,2.13
2022-08-24T23:32:54.727Z,2.72
2022-08-24T23:35:23.485Z,2.30
2022-08-24T23:37:50.726Z,2.05
2022-08-24T23:40:19.248Z,1.90
2022-08-24T23:42:47.174Z,1.90
2022-08-24T23:45:14.572Z,1.83
2022-08-24T23:47:48.041Z,1.90
2022-08-24T23:50:18.791Z,2.08
2022-08-24T23:52:49.284Z,2.13
2022-08-24T23:55:21.109Z,1.85
2022-08-24T23:57:50.576Z,2.17
